Time;durP1;ratioP1;P1;durP2;ratioP2;P2;SDS_P1;SDS_P2;PMS_P1;PMS_P2;Temp;Humidity;BMP_temperature;BMP_pressure;BME280_temperature;BME280_humidity;BME280_pressure;Samples;Min_cycle;Max_cycle;Signal;HPM_P1;HPM_P2
2023/03/07 00:01:04;;;;;;;;;;;;;;;7.91;59.24;98983.44;4953283;28;6823;-74
2023/03/07 00:03:29;;;;;;;;;;;;;;;7.93;59.03;98979.25;4946436;28;6784;-74
2023/03/07 00:06:05;;;;;;;;;;;;;;;7.94;59.21;98986.09;4926673;28;8794;-77
2023/03/07 00:08:32;;;;;;;;;;;;;;;7.96;58.85;98975.94;4955547;28;6792;-75
2023/03/07 00:11:07;;;;;;;;;;;;;;;7.97;59.00;98981.13;4948617;28;7830;-76
2023/03/07 00:13:37;;;;;;;;;;;;;;;7.99;59.52;98974.38;4931324;28;8507;-76
2023/03/07 00:16:13;;;;;;;;;;;;;;;8.01;59.48;98976.97;4962126;28;7210;-75
2023/03/07 00:18:40;;;;;;;;;;;;;;;8.03;58.53;98965.16;4945245;28;6792;-77
2023/03/07 00:21:09;;;;;;;;;;;;;;;8.06;58.74;98965.25;4950805;28;6776;-78
2023/03/07 00:23:38;;;;;;;;;;;;;;;8.08;59.42;98970.41;4942228;28;7042;-76
2023/03/07 00:26:14;;;;;;;;;;;;;;;8.11;59.29;98966.28;4962869;28;6791;-76
2023/03/07 00:28:40;;;;;;;;;;;;;;;8.16;59.57;98968.97;4965125;28;8619;-77
2023/03/07 00:31:10;;;;;;;;;;;;;;;8.17;59.40;98963.94;4948115;28;6948;-76
2023/03/07 00:33:36;;;;;;;;;;;;;;;8.17;59.22;98946.06;4941752;28;6989;-77
2023/03/07 00:36:28;;;;;;;;;;;;;;;8.19;59.32;98962.28;4943945;28;6964;-76
2023/03/07 00:38:54;;;;;;;;;;;;;;;8.21;59.23;98964.91;4944562;28;8095;-76
2023/03/07 00:41:26;;;;;;;;;;;;;;;8.24;59.41;98964.16;4955730;28;6776;-77
2023/03/07 00:43:54;;;;;;;;;;;;;;;8.25;59.52;98955.66;4923091;28;6959;-76
2023/03/07 00:46:22;;;;;;;;;;;;;;;8.27;60.04;98954.03;4955133;28;6967;-77
2023/03/07 00:48:48;;;;;;;;;;;;;;;8.29;58.66;98958.38;4938257;28;6785;-75
2023/03/07 00:51:18;;;;;;;;;;;;;;;8.28;59.04;98956.66;4950620;28;7003;-77
2023/03/07 00:53:44;;;;;;;;;;;;;;;8.30;59.61;98961.78;4961523;28;6812;-77
2023/03/07 00:56:23;;;;;;;;;;;;;;;8.33;60.10;98952.56;4937950;28;6961;-76
2023/03/07 00:58:50;;;;;;;;;;;;;;;8.31;58.72;98954.19;4939228;28;6991;-76
2023/03/07 01:01:20;;;;;;;;;;;;;;;8.33;59.01;98944.03;4952955;28;8714;-75
2023/03/07 01:03:52;;;;;;;;;;;;;;;8.33;58.85;98936.38;4946780;28;7511;-77
2023/03/07 01:06:24;;;;;;;;;;;;;;;8.32;59.38;98943.16;4946206;28;7225;-76
2023/03/07 01:08:50;;;;;;;;;;;;;;;8.31;59.65;98936.31;4942830;28;6872;-76
2023/03/07 01:11:16;;;;;;;;;;;;;;;8.34;58.77;98935.56;4940522;28;6780;-75
2023/03/07 01:13:42;;;;;;;;;;;;;;;8.34;59.36;98933.00;4946337;28;6809;-77
2023/03/07 01:16:21;;;;;;;;;;;;;;;8.35;59.17;98937.28;4936289;28;6780;-77
2023/03/07 01:18:54;;;;;;;;;;;;;;;8.36;59.66;98927.97;4940287;28;7945;-77
2023/03/07 01:21:25;;;;;;;;;;;;;;;8.28;59.71;98930.25;4950118;28;7026;-77
2023/03/07 01:23:51;;;;;;;;;;;;;;;8.30;59.78;98928.59;4944281;28;8159;-77
2023/03/07 01:26:22;;;;;;;;;;;;;;;8.32;59.54;98932.09;4940834;28;6855;-77
2023/03/07 01:28:51;;;;;;;;;;;;;;;8.30;59.36;98937.13;4955528;28;6856;-77
2023/03/07 01:31:17;;;;;;;;;;;;;;;8.32;59.39;98932.09;4963068;28;6785;-76
2023/03/07 01:33:43;;;;;;;;;;;;;;;8.33;59.22;98927.03;4953379;28;6796;-77
2023/03/07 01:36:27;;;;;;;;;;;;;;;8.33;58.87;98923.63;4939851;28;6780;-77
2023/03/07 01:39:05;;;;;;;;;;;;;;;8.32;59.95;98927.84;4933720;28;7017;-75
2023/03/07 01:41:34;;;;;;;;;;;;;;;8.31;60.15;98928.66;4958194;28;7246;-75
2023/03/07 01:44:06;;;;;;;;;;;;;;;8.32;59.65;98921.88;4935481;28;7102;-77
2023/03/07 01:46:49;;;;;;;;;;;;;;;8.35;59.40;98916.88;4942900;28;7629;-77
2023/03/07 01:49:38;;;;;;;;;;;;;;;8.34;59.63;98889.63;4950500;28;7380;-76
2023/03/07 01:52:15;;;;;;;;;;;;;;;8.32;60.43;98898.91;4958346;28;6812;-77
2023/03/07 01:54:50;;;;;;;;;;;;;;;8.32;60.66;98898.91;4935746;28;6822;-76
2023/03/07 01:57:28;;;;;;;;;;;;;;;8.35;60.17;98901.56;4938799;28;6892;-77
2023/03/07 01:59:58;;;;;;;;;;;;;;;8.30;59.87;98891.19;4946985;28;7079;-77
2023/03/07 02:02:25;;;;;;;;;;;;;;;8.34;60.43;98889.63;4950994;28;6975;-77
2023/03/07 02:05:18;;;;;;;;;;;;;;;8.33;60.57;98877.66;4932536;28;6800;-77
2023/03/07 02:07:48;;;;;;;;;;;;;;;8.33;60.18;98881.06;4936337;28;7444;-75
2023/03/07 02:10:18;;;;;;;;;;;;;;;8.33;60.21;98868.31;4954556;28;6932;-75
2023/03/07 02:12:44;;;;;;;;;;;;;;;8.33;59.78;98870.00;4954572;28;8326;-77
2023/03/07 02:15:13;;;;;;;;;;;;;;;8.36;60.71;98867.53;4948157;28;6780;-76
2023/03/07 02:17:42;;;;;;;;;;;;;;;8.35;60.37;98863.25;4955830;28;6820;-77
2023/03/07 02:20:53;;;;;;;;;;;;;;;8.31;59.32;98854.63;4935841;28;6940;-77
2023/03/07 02:23:54;;;;;;;;;;;;;;;8.28;60.32;98851.09;4936801;28;7255;-77
2023/03/07 02:26:29;;;;;;;;;;;;;;;8.28;59.83;98853.66;4943302;28;6996;-76
2023/03/07 02:28:55;;;;;;;;;;;;;;;8.25;60.28;98849.31;4941863;28;8617;-77
2023/03/07 02:31:22;;;;;;;;;;;;;;;8.27;60.30;98849.38;4942006;28;7178;-77
2023/03/07 02:33:48;;;;;;;;;;;;;;;8.27;60.35;98841.72;4936274;28;7118;-77
2023/03/07 02:36:27;;;;;;;;;;;;;;;8.27;59.86;98841.72;4935856;28;6796;-77
2023/03/07 02:38:56;;;;;;;;;;;;;;;8.28;59.46;98838.34;4936707;28;6966;-76
2023/03/07 02:41:28;;;;;;;;;;;;;;;8.27;60.06;98839.16;4951385;28;10116;-78
2023/03/07 02:43:54;;;;;;;;;;;;;;;8.25;60.15;98833.16;4942387;28;7126;-77
2023/03/07 02:46:20;;;;;;;;;;;;;;;8.22;59.92;98836.47;4933730;28;6776;-77
2023/03/07 02:48:46;;;;;;;;;;;;;;;8.22;60.60;98831.38;4958620;28;6993;-77
2023/03/07 02:51:12;;;;;;;;;;;;;;;8.21;60.29;98832.19;4937276;28;6965;-77
2023/03/07 02:53:38;;;;;;;;;;;;;;;8.22;59.61;98838.16;4925402;28;8613;-77
2023/03/07 02:56:05;;;;;;;;;;;;;;;8.20;59.84;98828.75;4933947;28;6836;-78
2023/03/07 02:58:31;;;;;;;;;;;;;;;8.17;60.60;98821.00;4943174;28;7003;-76
2023/03/07 03:00:56;;;;;;;;;;;;;;;8.16;60.31;98829.47;4936871;28;8531;-77
2023/03/07 03:03:23;;;;;;;;;;;;;;;8.16;59.47;98823.50;4932481;28;6973;-77
2023/03/07 03:05:48;;;;;;;;;;;;;;;8.18;60.13;98817.63;4919659;28;8496;-77
2023/03/07 03:08:14;;;;;;;;;;;;;;;8.17;59.72;98823.56;4962966;28;6968;-77
2023/03/07 03:10:39;;;;;;;;;;;;;;;8.15;60.41;98820.09;4929043;28;8652;-76
2023/03/07 03:13:06;;;;;;;;;;;;;;;8.16;59.83;98824.38;4939544;28;6903;-77
2023/03/07 03:15:32;;;;;;;;;;;;;;;8.13;59.54;98816.63;4941748;28;6796;-77
2023/03/07 03:17:57;;;;;;;;;;;;;;;8.08;60.08;98825.81;4948373;28;7038;-76
2023/03/07 03:20:24;;;;;;;;;;;;;;;8.09;59.58;98811.38;4942621;28;6768;-77
2023/03/07 03:22:51;;;;;;;;;;;;;;;8.08;59.76;98815.59;4944808;28;7333;-77
2023/03/07 03:25:19;;;;;;;;;;;;;;;8.08;60.40;98812.19;4959324;28;6915;-75
2023/03/07 03:27:45;;;;;;;;;;;;;;;8.08;59.76;98814.75;4963041;28;6995;-74
2023/03/07 03:30:13;;;;;;;;;;;;;;;8.07;59.92;98818.97;4941772;28;6796;-74
2023/03/07 03:32:39;;;;;;;;;;;;;;;8.05;60.12;98805.31;4944385;28;6967;-74
2023/03/07 03:35:06;;;;;;;;;;;;;;;8.05;59.54;98806.16;4963509;28;6954;-74
2023/03/07 03:37:32;;;;;;;;;;;;;;;8.04;60.79;98809.53;4928257;28;6976;-74
2023/03/07 03:39:58;;;;;;;;;;;;;;;8.06;59.88;98791.72;4942821;28;6955;-74
2023/03/07 03:42:24;;;;;;;;;;;;;;;8.03;60.47;98802.69;4940302;28;7156;-74
2023/03/07 03:44:50;;;;;;;;;;;;;;;8.01;60.02;98801.78;4946374;28;7107;-74
2023/03/07 03:47:16;;;;;;;;;;;;;;;8.02;60.45;98795.84;4954555;28;6757;-74
2023/03/07 03:49:42;;;;;;;;;;;;;;;8.04;60.36;98794.22;4958104;28;6794;-74
2023/03/07 03:52:08;;;;;;;;;;;;;;;8.05;60.18;98795.09;4939230;28;7000;-73
2023/03/07 03:54:34;;;;;;;;;;;;;;;8.05;59.96;98795.09;4939481;28;7218;-74
2023/03/07 03:57:00;;;;;;;;;;;;;;;8.08;60.31;98791.78;4953828;28;6804;-74
2023/03/07 03:59:26;;;;;;;;;;;;;;;8.08;59.86;98791.78;4954001;28;6974;-74
2023/03/07 04:01:53;;;;;;;;;;;;;;;8.09;59.56;98794.38;4937417;28;6800;-74
2023/03/07 04:04:21;;;;;;;;;;;;;;;8.09;59.51;98781.59;4936547;28;7019;-74
2023/03/07 04:06:47;;;;;;;;;;;;;;;8.07;60.02;98780.69;4942462;28;7050;-74
2023/03/07 04:09:13;;;;;;;;;;;;;;;8.09;59.83;98790.97;4938778;28;7211;-74
2023/03/07 04:11:38;;;;;;;;;;;;;;;8.08;60.16;98779.88;4936824;28;6850;-74
2023/03/07 04:14:04;;;;;;;;;;;;;;;8.08;60.11;98781.56;4939658;28;6780;-74
2023/03/07 04:16:30;;;;;;;;;;;;;;;8.10;59.61;98778.22;4941546;28;6955;-74
2023/03/07 04:18:56;;;;;;;;;;;;;;;8.10;60.65;98770.56;4935591;28;8069;-74
2023/03/07 04:21:22;;;;;;;;;;;;;;;8.11;60.85;98762.13;4936391;28;6808;-74
2023/03/07 04:23:49;;;;;;;;;;;;;;;8.09;60.40;98766.28;4935873;28;6777;-74
2023/03/07 04:26:15;;;;;;;;;;;;;;;8.11;59.44;98767.25;4958682;28;7031;-74
2023/03/07 04:28:43;;;;;;;;;;;;;;;8.09;59.97;98761.19;4932023;28;8125;-74
2023/03/07 04:31:22;;;;;;;;;;;;;;;8.09;60.49;98760.34;4938358;28;6972;-74
2023/03/07 04:33:48;;;;;;;;;;;;;;;8.07;60.95;98760.28;4954128;28;6961;-74
2023/03/07 04:36:17;;;;;;;;;;;;;;;8.03;60.81;98753.38;4963480;28;7837;-74
2023/03/07 04:38:45;;;;;;;;;;;;;;;8.02;60.02;98756.75;4956827;28;6987;-74
2023/03/07 04:41:15;;;;;;;;;;;;;;;8.03;60.36;98750.81;4963254;28;7028;-74
2023/03/07 04:43:41;;;;;;;;;;;;;;;8.03;59.71;98749.09;4939530;28;6989;-74
2023/03/07 04:46:08;;;;;;;;;;;;;;;8.04;59.71;98747.44;4940831;28;6780;-74
2023/03/07 04:48:34;;;;;;;;;;;;;;;8.07;59.56;98750.06;4943503;28;6957;-74
2023/03/07 04:50:59;;;;;;;;;;;;;;;8.05;60.70;98736.41;4955859;28;6776;-74
2023/03/07 04:53:25;;;;;;;;;;;;;;;8.04;59.97;98734.69;4950093;28;7258;-74
2023/03/07 04:55:58;;;;;;;;;;;;;;;8.04;59.76;98727.88;4945204;28;7103;-74
2023/03/07 04:58:25;;;;;;;;;;;;;;;8.04;60.45;98732.13;4958926;28;8299;-74
2023/03/07 05:00:51;;;;;;;;;;;;;;;8.04;60.15;98727.88;4942952;28;7219;-75
2023/03/07 05:03:16;;;;;;;;;;;;;;;8.03;59.82;98728.69;4939158;28;6787;-75
2023/03/07 05:05:42;;;;;;;;;;;;;;;8.06;61.01;98718.59;4934013;28;8024;-74
2023/03/07 05:08:08;;;;;;;;;;;;;;;8.07;60.32;98722.00;4957937;28;6788;-74
2023/03/07 05:10:36;;;;;;;;;;;;;;;8.08;60.50;98718.63;4943193;28;6788;-74
2023/03/07 05:13:02;;;;;;;;;;;;;;;8.09;59.84;98712.72;4933921;28;8470;-74
2023/03/07 05:15:28;;;;;;;;;;;;;;;8.04;61.09;98720.22;4926038;28;6983;-74
2023/03/07 05:17:54;;;;;;;;;;;;;;;8.05;61.16;98716.84;4929121;28;6972;-74
2023/03/07 05:20:20;;;;;;;;;;;;;;;8.09;60.59;98710.16;4938688;28;6761;-74
2023/03/07 05:22:46;;;;;;;;;;;;;;;8.11;60.30;98702.56;4922609;28;10490;-74
2023/03/07 05:25:12;;;;;;;;;;;;;;;8.14;60.01;98710.31;4948402;28;9760;-74
2023/03/07 05:27:38;;;;;;;;;;;;;;;8.12;59.77;98702.63;4963129;28;10944;-74
2023/03/07 05:30:05;;;;;;;;;;;;;;;8.12;60.72;98702.63;4961232;28;10068;-74
2023/03/07 05:32:31;;;;;;;;;;;;;;;8.13;59.96;98701.78;4948935;28;9862;-74
2023/03/07 05:34:57;;;;;;;;;;;;;;;8.15;60.56;98700.16;4964061;28;6808;-74
2023/03/07 05:37:22;;;;;;;;;;;;;;;8.15;60.72;98704.38;4955658;28;9831;-74
2023/03/07 05:39:48;;;;;;;;;;;;;;;8.15;60.72;98710.34;4969068;28;7872;-75
2023/03/07 05:42:14;;;;;;;;;;;;;;;8.17;61.11;98697.66;4941097;28;7115;-74
2023/03/07 05:44:41;;;;;;;;;;;;;;;8.16;60.28;98701.88;4949447;28;7234;-74
2023/03/07 05:47:07;;;;;;;;;;;;;;;8.18;60.75;98697.69;4937119;28;9920;-74
2023/03/07 05:49:32;;;;;;;;;;;;;;;8.23;61.00;98702.06;4950388;28;7235;-74
2023/03/07 05:51:58;;;;;;;;;;;;;;;8.22;60.30;98706.28;4948524;28;6942;-74
2023/03/07 05:54:24;;;;;;;;;;;;;;;8.25;61.14;98708.09;4940058;28;6947;-74
2023/03/07 05:56:49;;;;;;;;;;;;;;;8.23;60.33;98702.06;4951777;28;7385;-74
2023/03/07 05:59:15;;;;;;;;;;;;;;;8.24;59.73;98703.81;4951995;28;8497;-74
2023/03/07 06:01:42;;;;;;;;;;;;;;;8.23;60.47;98702.06;4969635;28;6974;-74
2023/03/07 06:04:08;;;;;;;;;;;;;;;8.24;60.13;98699.53;4954255;28;10027;-74
2023/03/07 06:06:34;;;;;;;;;;;;;;;8.28;60.67;98700.50;4938656;28;7078;-74
2023/03/07 06:08:59;;;;;;;;;;;;;;;8.28;60.58;98705.63;4970087;28;6856;-74
2023/03/07 06:11:25;;;;;;;;;;;;;;;8.25;59.83;98701.28;4969989;28;7303;-74
2023/03/07 06:13:51;;;;;;;;;;;;;;;8.25;61.12;98696.16;4934636;28;8114;-75
2023/03/07 06:16:16;;;;;;;;;;;;;;;8.25;60.27;98697.88;4956431;28;7193;-75
2023/03/07 06:18:42;;;;;;;;;;;;;;;8.25;60.37;98690.22;4969959;28;6943;-75
2023/03/07 06:21:11;;;;;;;;;;;;;;;8.24;60.31;98694.44;4958728;28;7090;-75
2023/03/07 06:23:37;;;;;;;;;;;;;;;8.24;61.11;98684.22;4934052;28;6987;-75
2023/03/07 06:26:04;;;;;;;;;;;;;;;8.26;60.01;98671.53;4959126;28;6808;-75
2023/03/07 06:28:30;;;;;;;;;;;;;;;8.27;60.89;98686.91;4954974;28;6999;-75
2023/03/07 06:30:55;;;;;;;;;;;;;;;8.30;60.71;98679.31;4923668;28;6988;-75
2023/03/07 06:33:21;;;;;;;;;;;;;;;8.35;60.45;98676.91;4956457;28;7096;-75
2023/03/07 06:35:47;;;;;;;;;;;;;;;8.38;60.95;98679.53;4972892;28;7146;-75
2023/03/07 06:38:16;;;;;;;;;;;;;;;8.40;59.72;98664.28;4953920;28;10496;-75
2023/03/07 06:40:42;;;;;;;;;;;;;;;8.41;60.19;98676.22;4952572;28;6812;-75
2023/03/07 06:43:10;;;;;;;;;;;;;;;8.44;59.29;98673.75;4963297;28;6962;-75
2023/03/07 06:45:36;;;;;;;;;;;;;;;8.46;59.94;98675.53;4954504;28;6963;-75
2023/03/07 06:48:02;;;;;;;;;;;;;;;8.47;60.54;98673.84;4954667;28;7111;-75
2023/03/07 06:50:27;;;;;;;;;;;;;;;8.48;60.39;98673.88;4944836;28;7294;-75
2023/03/07 06:52:53;;;;;;;;;;;;;;;8.52;59.77;98674.00;4946656;28;7906;-75
2023/03/07 06:55:19;;;;;;;;;;;;;;;8.48;59.98;98671.31;4958325;28;7924;-75
2023/03/07 06:57:45;;;;;;;;;;;;;;;8.52;59.67;98669.75;4956773;28;6932;-75
2023/03/07 07:00:12;;;;;;;;;;;;;;;8.52;59.78;98674.84;4973583;28;8100;-75
2023/03/07 07:02:38;;;;;;;;;;;;;;;8.54;58.96;98672.38;4956760;28;6848;-75
2023/03/07 07:05:04;;;;;;;;;;;;;;;8.55;59.01;98679.19;4959597;28;6831;-75
2023/03/07 07:07:30;;;;;;;;;;;;;;;8.53;59.39;98678.28;4961605;28;7209;-75
2023/03/07 07:09:56;;;;;;;;;;;;;;;8.47;59.15;98672.13;4954296;28;6966;-75
2023/03/07 07:12:22;;;;;;;;;;;;;;;8.47;59.11;98666.19;4976739;28;7242;-75
2023/03/07 07:14:48;;;;;;;;;;;;;;;8.44;59.38;98672.06;4976613;28;6964;-75
2023/03/07 07:17:14;;;;;;;;;;;;;;;8.42;59.67;98672.84;4952990;28;7433;-75
2023/03/07 07:19:39;;;;;;;;;;;;;;;8.40;59.71;98666.81;4940398;28;7595;-75
2023/03/07 07:22:10;;;;;;;;;;;;;;;8.38;59.17;98666.78;4963260;28;8524;-75
2023/03/07 07:24:39;;;;;;;;;;;;;;;8.38;59.74;98669.31;4952768;28;9211;-75
2023/03/07 07:27:05;;;;;;;;;;;;;;;8.38;59.66;98666.78;4949463;28;7334;-75
2023/03/07 07:29:31;;;;;;;;;;;;;;;8.36;59.30;98658.22;4970441;28;6799;-75
2023/03/07 07:31:57;;;;;;;;;;;;;;;8.32;60.56;98679.38;4977499;28;6945;-75
2023/03/07 07:34:22;;;;;;;;;;;;;;;8.31;59.82;98662.34;4975544;28;6768;-75
2023/03/07 07:36:48;;;;;;;;;;;;;;;8.29;60.57;98667.38;4963048;28;7281;-75
2023/03/07 07:39:14;;;;;;;;;;;;;;;8.30;59.91;98678.44;4964496;28;6780;-75
2023/03/07 07:41:40;;;;;;;;;;;;;;;8.31;59.25;98675.94;4962942;28;6764;-75
2023/03/07 07:44:05;;;;;;;;;;;;;;;8.33;59.63;98671.75;4961051;28;6851;-75
2023/03/07 07:46:31;;;;;;;;;;;;;;;8.36;60.66;98675.22;4942257;28;6776;-75
2023/03/07 07:48:57;;;;;;;;;;;;;;;8.39;60.33;98678.72;4965021;28;7525;-75
2023/03/07 07:51:22;;;;;;;;;;;;;;;8.42;60.25;98676.28;4941646;28;6810;-75
2023/03/07 07:53:48;;;;;;;;;;;;;;;8.46;59.85;98680.63;4944522;28;6952;-75
2023/03/07 07:56:13;;;;;;;;;;;;;;;8.55;59.59;98659.66;4945458;28;6767;-75
2023/03/07 07:58:39;;;;;;;;;;;;;;;8.63;60.20;98664.97;4949715;28;7170;-75
2023/03/07 08:01:23;;;;;;;;;;;;;;;8.76;59.34;98673.84;4939542;28;6826;-75
2023/03/07 08:03:48;;;;;;;;;;;;;;;8.85;60.26;98673.19;4959287;28;6848;-75
2023/03/07 08:06:24;;;;;;;;;;;;;;;8.98;60.00;98676.97;4958986;28;6929;-75
2023/03/07 08:08:50;;;;;;;;;;;;;;;9.08;60.19;98671.25;4964876;28;7354;-73
2023/03/07 08:11:17;;;;;;;;;;;;;;;9.15;58.99;98662.06;4964164;28;6876;-75
2023/03/07 08:13:43;;;;;;;;;;;;;;;9.19;59.32;98678.34;4935662;28;7701;-75
2023/03/07 08:16:10;;;;;;;;;;;;;;;9.21;58.37;98671.56;4929820;28;7241;-75
2023/03/07 08:18:35;;;;;;;;;;;;;;;9.23;59.45;98655.47;4945219;28;6998;-75
2023/03/07 08:21:01;;;;;;;;;;;;;;;9.24;59.25;98666.56;4944224;28;6837;-75
2023/03/07 08:23:27;;;;;;;;;;;;;;;9.20;58.92;98664.72;4958166;28;7142;-75
2023/03/07 08:25:52;;;;;;;;;;;;;;;9.19;58.02;98679.22;4945139;28;7870;-75
2023/03/07 08:28:18;;;;;;;;;;;;;;;9.20;57.87;98675.84;4956013;28;7262;-75
2023/03/07 08:30:43;;;;;;;;;;;;;;;9.16;58.12;98676.56;4938448;28;6927;-75
2023/03/07 08:33:09;;;;;;;;;;;;;;;9.15;58.01;98664.63;4945218;28;6929;-75
2023/03/07 08:35:35;;;;;;;;;;;;;;;9.13;58.85;98673.94;4945347;28;6929;-75
2023/03/07 08:38:00;;;;;;;;;;;;;;;9.07;58.41;98687.44;4959667;28;7193;-75
2023/03/07 08:40:30;;;;;;;;;;;;;;;9.07;57.96;98694.22;4948864;28;6768;-75
2023/03/07 08:42:58;;;;;;;;;;;;;;;9.06;58.28;98693.38;4938943;28;6784;-75
2023/03/07 08:45:24;;;;;;;;;;;;;;;9.05;59.11;98696.75;4958992;28;7340;-75
2023/03/07 08:47:54;;;;;;;;;;;;;;;9.04;58.67;98705.25;4941206;28;6784;-76
2023/03/07 08:50:22;;;;;;;;;;;;;;;9.07;59.57;98704.44;4959639;28;6969;-75
2023/03/07 08:52:49;;;;;;;;;;;;;;;9.10;59.20;98691.75;4957641;28;7255;-75
2023/03/07 08:55:15;;;;;;;;;;;;;;;9.13;59.55;98690.16;4949794;28;6868;-75
2023/03/07 08:57:44;;;;;;;;;;;;;;;9.17;59.20;98691.97;4954721;28;7005;-75
2023/03/07 09:00:11;;;;;;;;;;;;;;;9.23;59.83;98705.72;4955087;28;6990;-75
2023/03/07 09:02:37;;;;;;;;;;;;;;;9.28;58.89;98694.81;4965528;28;6824;-75
2023/03/07 09:05:03;;;;;;;;;;;;;;;9.31;59.31;98689.75;4947590;28;6772;-75
2023/03/07 09:07:29;;;;;;;;;;;;;;;9.32;58.81;98685.53;4936625;28;8259;-75
2023/03/07 09:09:55;;;;;;;;;;;;;;;9.34;58.48;98682.97;4943952;28;6788;-75
2023/03/07 09:12:20;;;;;;;;;;;;;;;9.36;58.29;98683.88;4920235;28;7088;-75
2023/03/07 09:14:46;;;;;;;;;;;;;;;9.36;58.13;98691.56;4952286;28;6942;-75
2023/03/07 09:17:12;;;;;;;;;;;;;;;9.35;58.19;98682.16;4944983;28;6837;-75
2023/03/07 09:19:37;;;;;;;;;;;;;;;9.32;57.95;98690.63;4936278;28;6776;-75
2023/03/07 09:22:03;;;;;;;;;;;;;;;9.30;58.88;98688.03;4943915;28;6776;-75
2023/03/07 09:24:29;;;;;;;;;;;;;;;9.27;59.52;98677.72;4948454;28;6768;-75
2023/03/07 09:26:55;;;;;;;;;;;;;;;9.23;59.39;98675.91;4944963;28;6944;-75
2023/03/07 09:29:21;;;;;;;;;;;;;;;9.26;58.52;98675.97;4952433;28;7499;-76
2023/03/07 09:31:46;;;;;;;;;;;;;;;9.24;58.89;98682.75;4935691;28;7178;-75
2023/03/07 09:34:12;;;;;;;;;;;;;;;9.27;58.21;98679.41;4952352;28;6982;-76
2023/03/07 09:36:39;;;;;;;;;;;;;;;9.25;59.00;98684.47;4957820;28;7284;-76
2023/03/07 09:39:05;;;;;;;;;;;;;;;9.26;59.28;98675.97;4943059;28;7137;-75
2023/03/07 09:42:33;;;;;;;;;;;;;;;9.31;59.09;98674.41;4945009;28;6851;-76
2023/03/07 09:45:23;;;;;;;;;;;;;;;9.29;59.31;98683.75;4944743;28;7250;-75
2023/03/07 09:48:17;;;;;;;;;;;;;;;9.28;58.64;98681.13;4953496;28;7149;-75
2023/03/07 09:50:52;;;;;;;;;;;;;;;9.23;59.61;98680.16;4941145;28;6983;-75
2023/03/07 09:53:41;;;;;;;;;;;;;;;9.22;58.96;98671.63;4936229;28;8320;-75
2023/03/07 09:56:18;;;;;;;;;;;;;;;9.22;58.81;98679.28;4918712;28;7340;-76
2023/03/07 09:58:55;;;;;;;;;;;;;;;9.22;59.20;98679.28;4936744;28;6988;-76
2023/03/07 10:01:28;;;;;;;;;;;;;;;9.22;58.41;98680.97;4942893;28;7177;-76
2023/03/07 10:04:12;;;;;;;;;;;;;;;9.16;59.43;98691.91;4942757;28;7222;-75
2023/03/07 10:06:45;;;;;;;;;;;;;;;9.11;59.92;98680.72;4961030;28;6807;-75
2023/03/07 10:09:21;;;;;;;;;;;;;;;9.11;58.68;98689.22;4963036;28;8467;-75
2023/03/07 10:12:25;;;;;;;;;;;;;;;9.09;59.46;98685.78;4938593;28;7030;-75
2023/03/07 10:15:09;;;;;;;;;;;;;;;9.05;60.02;98690.75;4932606;28;7177;-76
2023/03/07 10:18:02;;;;;;;;;;;;;;;9.08;59.45;98693.38;4943237;28;6910;-76
2023/03/07 10:21:17;;;;;;;;;;;;;;;9.09;58.90;98692.59;4942775;28;7028;-75
2023/03/07 10:24:07;;;;;;;;;;;;;;;9.09;58.94;98683.22;4941568;28;8399;-76
2023/03/07 10:27:08;;;;;;;;;;;;;;;9.10;58.83;98684.09;4962301;28;6804;-76
2023/03/07 10:29:46;;;;;;;;;;;;;;;9.11;60.01;98690.94;4929558;28;8503;-75
2023/03/07 10:32:21;;;;;;;;;;;;;;;9.12;60.33;98687.56;4950381;28;7376;-75
2023/03/07 10:35:05;;;;;;;;;;;;;;;9.14;59.27;98680.78;4950894;28;7793;-76
2023/03/07 10:37:58;;;;;;;;;;;;;;;9.12;59.64;98685.84;4938192;28;7350;-75
2023/03/07 10:40:39;;;;;;;;;;;;;;;9.15;59.64;98690.19;4939892;28;6804;-76
2023/03/07 10:43:05;;;;;;;;;;;;;;;9.19;59.64;98676.66;4960898;28;7199;-75
2023/03/07 10:45:32;;;;;;;;;;;;;;;9.22;60.36;98694.63;4945556;28;6980;-75
2023/03/07 10:48:18;;;;;;;;;;;;;;;9.24;59.12;98680.19;4945780;28;6979;-75
2023/03/07 10:51:04;;;;;;;;;;;;;;;9.25;59.38;98681.06;4950257;28;7273;-75
2023/03/07 10:53:36;;;;;;;;;;;;;;;9.27;59.49;98685.41;4953649;28;7245;-75
2023/03/07 10:56:17;;;;;;;;;;;;;;;9.30;59.24;98682.03;4936644;28;7445;-75
2023/03/07 10:59:08;;;;;;;;;;;;;;;9.31;60.11;98678.66;4966340;28;7031;-75
2023/03/07 11:01:37;;;;;;;;;;;;;;;9.30;58.98;98679.47;4937660;28;6863;-75
2023/03/07 11:04:21;;;;;;;;;;;;;;;9.31;59.27;98682.09;4946397;28;8769;-75
2023/03/07 11:06:55;;;;;;;;;;;;;;;9.30;59.20;98680.34;4939596;28;7469;-75
2023/03/07 11:09:33;;;;;;;;;;;;;;;9.31;59.13;98679.53;4937951;28;7111;-75
2023/03/07 11:12:04;;;;;;;;;;;;;;;9.30;60.01;98677.81;4934963;28;8474;-76
2023/03/07 11:14:54;;;;;;;;;;;;;;;9.31;59.88;98674.41;4953842;28;8571;-75
2023/03/07 11:17:27;;;;;;;;;;;;;;;9.28;59.74;98671.78;4949460;28;7117;-75
2023/03/07 11:19:57;;;;;;;;;;;;;;;9.29;60.12;98668.41;4957246;28;6803;-75
2023/03/07 11:22:34;;;;;;;;;;;;;;;9.30;60.03;98669.25;4945535;28;7802;-76
2023/03/07 11:25:25;;;;;;;;;;;;;;;9.31;60.01;98676.97;4939265;28;6990;-75
2023/03/07 11:27:57;;;;;;;;;;;;;;;9.31;59.74;98664.19;4956897;28;7196;-75
2023/03/07 11:30:50;;;;;;;;;;;;;;;9.30;59.94;98670.13;4936133;28;6943;-76
2023/03/07 11:33:36;;;;;;;;;;;;;;;9.34;60.41;98670.19;4955869;28;8357;-76
2023/03/07 11:36:12;;;;;;;;;;;;;;;9.36;60.54;98671.97;4941731;28;7460;-76
2023/03/07 11:39:14;;;;;;;;;;;;;;;9.38;59.39;98665.19;4923330;28;7349;-76
2023/03/07 11:41:46;;;;;;;;;;;;;;;9.38;60.34;98670.31;4946925;28;6972;-76
2023/03/07 11:44:39;;;;;;;;;;;;;;;9.37;59.13;98672.84;4940014;28;6792;-76
2023/03/07 11:47:32;;;;;;;;;;;;;;;9.33;59.71;98676.16;4951161;28;7197;-76
2023/03/07 11:50:17;;;;;;;;;;;;;;;9.29;59.66;98677.75;4953149;28;8474;-76
2023/03/07 11:53:33;;;;;;;;;;;;;;;9.25;59.95;98674.25;4941609;28;6972;-76
2023/03/07 11:56:31;;;;;;;;;;;;;;;9.22;59.61;98676.72;4937573;28;8496;-75
2023/03/07 11:59:15;;;;;;;;;;;;;;;9.22;60.41;98681.84;4956653;28;7219;-76
2023/03/07 12:02:05;;;;;;;;;;;;;;;9.21;59.53;98669.00;4944155;28;8571;-76
2023/03/07 12:04:55;;;;;;;;;;;;;;;9.21;60.22;98675.00;4964179;28;6971;-75
2023/03/07 12:08:07;;;;;;;;;;;;;;;9.21;60.38;98671.56;4951744;28;7245;-76
2023/03/07 12:11:09;;;;;;;;;;;;;;;9.22;60.09;98670.75;4940295;28;6994;-76
2023/03/07 12:14:09;;;;;;;;;;;;;;;9.24;59.40;98675.06;4965113;28;6796;-76
2023/03/07 12:17:10;;;;;;;;;;;;;;;9.23;60.47;98668.25;4940583;28;7178;-76
2023/03/07 12:20:06;;;;;;;;;;;;;;;9.23;59.83;98675.91;4950027;28;7292;-76
2023/03/07 12:23:14;;;;;;;;;;;;;;;9.22;59.66;98669.06;4947282;28;7187;-76
2023/03/07 12:25:54;;;;;;;;;;;;;;;9.26;60.06;98662.34;4943955;28;7308;-76
2023/03/07 12:28:20;;;;;;;;;;;;;;;9.30;59.67;98665.03;4956228;28;7133;-76
2023/03/07 12:30:54;;;;;;;;;;;;;;;9.34;60.63;98662.53;4950615;28;6752;-76
2023/03/07 12:33:38;;;;;;;;;;;;;;;9.36;60.31;98659.19;4956256;28;8539;-76
2023/03/07 12:36:33;;;;;;;;;;;;;;;9.42;59.65;98661.03;4961452;28;8035;-76
2023/03/07 12:39:26;;;;;;;;;;;;;;;9.45;60.09;98663.66;4939387;28;6812;-76
2023/03/07 12:42:31;;;;;;;;;;;;;;;9.43;59.48;98665.31;4946568;28;7894;-76
2023/03/07 12:45:18;;;;;;;;;;;;;;;9.42;59.80;98656.78;4948646;28;7146;-76
2023/03/07 12:47:53;;;;;;;;;;;;;;;9.39;60.29;98655.84;4945931;28;6808;-76
2023/03/07 12:50:56;;;;;;;;;;;;;;;9.37;60.01;98653.25;4950650;28;6805;-76
2023/03/07 12:53:36;;;;;;;;;;;;;;;9.36;59.37;98665.97;4945584;28;7349;-76
2023/03/07 12:56:48;;;;;;;;;;;;;;;9.28;58.22;98668.34;4945168;28;7325;-76
2023/03/07 12:59:18;;;;;;;;;;;;;;;9.00;57.29;98673.63;4955022;28;6831;-76
2023/03/07 13:02:19;;;;;;;;;;;;;;;8.71;57.37;98673.69;4943624;28;7249;-75
2023/03/07 13:04:44;;;;;;;;;;;;;;;8.47;57.71;98674.69;4947614;28;7337;-76
2023/03/07 13:07:31;;;;;;;;;;;;;;;8.29;57.64;98677.59;4955408;28;6859;-75
2023/03/07 13:10:05;;;;;;;;;;;;;;;8.14;58.90;98680.56;4964560;28;6976;-75
2023/03/07 13:12:40;;;;;;;;;;;;;;;8.00;57.65;98682.69;4944445;28;6961;-76
2023/03/07 13:15:37;;;;;;;;;;;;;;;7.90;58.45;98688.31;4945547;28;7036;-75
2023/03/07 13:18:04;;;;;;;;;;;;;;;7.78;58.27;98689.69;4947256;28;7209;-76
2023/03/07 13:20:38;;;;;;;;;;;;;;;7.71;59.04;98690.28;4940027;28;7177;-75
2023/03/07 13:23:23;;;;;;;;;;;;;;;7.69;58.96;98693.59;4937676;28;8319;-76
2023/03/07 13:25:57;;;;;;;;;;;;;;;7.67;58.88;98685.03;4944823;28;7073;-75
2023/03/07 13:28:43;;;;;;;;;;;;;;;7.62;59.24;98690.00;4957991;28;8591;-75
2023/03/07 13:31:14;;;;;;;;;;;;;;;7.59;58.89;98690.75;4956018;28;6848;-75
2023/03/07 13:33:40;;;;;;;;;;;;;;;7.60;58.77;98699.28;4949493;28;7337;-76
2023/03/07 13:36:37;;;;;;;;;;;;;;;7.62;59.39;98706.13;4946933;28;7027;-76